Time;durP1;ratioP1;P1;durP2;ratioP2;P2;SDS_P1;SDS_P2;PMS_P1;PMS_P2;Temp;Humidity;BMP_temperature;BMP_pressure;BME280_temperature;BME280_humidity;BME280_pressure;Samples;Min_cycle;Max_cycle;Signal;HPM_P1;HPM_P2
2020/12/31 00:02:17;;;;;;;15.93;9.73;;;4.10;99.90;;;;;;5052146;28;20540;-65
2020/12/31 00:04:43;;;;;;;16.90;9.60;;;4.10;99.90;;;;;;5047005;28;20053;-65
2020/12/31 00:07:09;;;;;;;16.23;9.60;;;4.10;99.90;;;;;;5050752;28;20500;-65
2020/12/31 00:09:36;;;;;;;18.92;9.82;;;4.10;99.90;;;;;;5046684;28;20049;-65
2020/12/31 00:12:03;;;;;;;17.90;10.05;;;4.10;99.90;;;;;;5050163;28;20047;-65
2020/12/31 00:14:30;;;;;;;19.25;10.52;;;4.10;99.90;;;;;;5045864;28;20075;-65
2020/12/31 00:16:57;;;;;;;17.08;9.80;;;4.10;99.90;;;;;;5050313;28;20098;-66
2020/12/31 00:19:24;;;;;;;19.05;9.13;;;4.10;99.90;;;;;;5048234;28;20388;-65
2020/12/31 00:21:50;;;;;;;15.32;8.77;;;4.10;99.90;;;;;;5049391;28;20048;-65
2020/12/31 00:24:17;;;;;;;16.20;8.93;;;4.10;99.90;;;;;;5047464;28;20383;-65
2020/12/31 00:26:43;;;;;;;16.98;9.40;;;4.10;99.90;;;;;;5048847;28;20404;-65
2020/12/31 00:29:09;;;;;;;16.02;9.00;;;4.10;99.90;;;;;;5047062;28;20037;-65
2020/12/31 00:31:37;;;;;;;15.95;9.07;;;4.10;99.90;;;;;;5049763;28;20048;-65
2020/12/31 00:34:04;;;;;;;12.40;7.85;;;4.10;99.90;;;;;;5046203;28;20067;-65
2020/12/31 00:36:30;;;;;;;15.52;8.38;;;4.10;99.90;;;;;;5047298;28;20570;-65
2020/12/31 00:38:56;;;;;;;15.27;7.85;;;4.10;99.90;;;;;;5050914;28;20468;-66
2020/12/31 00:41:23;;;;;;;12.75;7.47;;;4.10;99.90;;;;;;5042701;28;20049;-66
2020/12/31 00:43:49;;;;;;;15.00;8.75;;;4.00;99.90;;;;;;5048611;28;20070;-65
2020/12/31 00:46:17;;;;;;;10.93;6.72;;;4.00;99.90;;;;;;5048573;28;20506;-65
2020/12/31 00:48:43;;;;;;;13.73;7.35;;;4.00;99.90;;;;;;5050322;28;20127;-66
2020/12/31 00:51:09;;;;;;;14.25;7.40;;;4.00;99.90;;;;;;5047278;28;20151;-67
2020/12/31 00:53:36;;;;;;;13.38;7.65;;;4.10;99.90;;;;;;5048713;28;20055;-67
2020/12/31 00:56:02;;;;;;;12.82;7.50;;;4.00;99.90;;;;;;5048042;28;20044;-66
2020/12/31 00:58:28;;;;;;;13.00;7.68;;;4.00;99.90;;;;;;5050854;28;20053;-66
2020/12/31 01:00:55;;;;;;;11.98;7.50;;;4.00;99.90;;;;;;5048121;28;20507;-67
2020/12/31 01:03:21;;;;;;;13.20;7.28;;;4.00;99.90;;;;;;5050410;28;20044;-67
2020/12/31 01:05:47;;;;;;;10.60;6.45;;;4.00;99.90;;;;;;5051543;28;20080;-67
2020/12/31 01:08:13;;;;;;;12.10;6.93;;;4.00;99.90;;;;;;5054583;28;20107;-68
2020/12/31 01:10:40;;;;;;;11.95;6.10;;;3.90;99.90;;;;;;5046701;28;20045;-66
2020/12/31 01:13:06;;;;;;;10.85;6.05;;;3.90;99.90;;;;;;5052457;28;20092;-66
2020/12/31 01:15:32;;;;;;;11.02;6.35;;;3.90;99.90;;;;;;5049590;28;20075;-66
2020/12/31 01:17:59;;;;;;;9.45;5.53;;;3.90;99.90;;;;;;5054226;28;20503;-66
2020/12/31 01:20:25;;;;;;;10.07;5.68;;;3.90;99.90;;;;;;5047607;28;20049;-66
2020/12/31 01:22:52;;;;;;;9.38;5.68;;;3.90;99.90;;;;;;5052756;28;20407;-66
2020/12/31 01:25:19;;;;;;;11.68;5.72;;;3.90;99.90;;;;;;5050146;28;20045;-66
2020/12/31 01:27:45;;;;;;;9.55;5.15;;;3.90;99.90;;;;;;5053799;28;20076;-66
2020/12/31 01:30:12;;;;;;;9.15;5.90;;;3.90;99.90;;;;;;5064502;28;20049;-66
2020/12/31 01:32:38;;;;;;;8.40;4.85;;;4.00;99.90;;;;;;5052894;28;20455;-66
2020/12/31 01:35:05;;;;;;;9.25;5.07;;;4.00;99.90;;;;;;5049428;28;20389;-66
2020/12/31 01:37:31;;;;;;;10.00;5.65;;;4.00;99.90;;;;;;5054009;28;20045;-66
2020/12/31 01:39:57;;;;;;;11.95;5.90;;;4.00;99.90;;;;;;5050460;28;20044;-67
2020/12/31 01:42:23;;;;;;;12.30;5.78;;;4.00;99.90;;;;;;5051750;28;20063;-67
2020/12/31 01:44:50;;;;;;;10.23;5.50;;;4.10;99.90;;;;;;5043854;28;20084;-67
2020/12/31 01:47:17;;;;;;;8.68;5.35;;;4.10;99.90;;;;;;5054230;28;20041;-67
2020/12/31 01:49:45;;;;;;;8.18;5.10;;;4.10;99.90;;;;;;5048298;28;20491;-67
2020/12/31 01:52:14;;;;;;;8.57;4.35;;;4.10;99.90;;;;;;5051755;28;20048;-67
2020/12/31 01:54:44;;;;;;;7.38;4.57;;;4.10;99.90;;;;;;5047630;28;20104;-67
2020/12/31 01:57:10;;;;;;;7.07;4.22;;;4.00;99.90;;;;;;5049542;28;20053;-67
2020/12/31 01:59:41;;;;;;;9.27;4.43;;;4.00;99.90;;;;;;5051044;28;20529;-67
2020/12/31 02:02:08;;;;;;;7.28;4.20;;;4.00;99.90;;;;;;5048564;28;20400;-67
2020/12/31 02:04:36;;;;;;;7.15;4.13;;;3.90;99.90;;;;;;5043825;28;20045;-67
2020/12/31 02:07:03;;;;;;;6.60;3.70;;;3.90;99.90;;;;;;5051864;28;20040;-67
2020/12/31 02:09:30;;;;;;;7.57;4.10;;;3.90;99.90;;;;;;5051113;28;20050;-67
2020/12/31 02:12:05;;;;;;;6.35;3.85;;;3.90;99.90;;;;;;5052891;28;20095;-67
2020/12/31 02:14:32;;;;;;;6.78;3.88;;;3.90;99.90;;;;;;5048344;28;20514;-67
2020/12/31 02:16:58;;;;;;;6.95;3.65;;;3.90;99.90;;;;;;5055631;28;20049;-67
2020/12/31 02:19:25;;;;;;;6.78;4.10;;;3.90;99.90;;;;;;5050184;28;20053;-67
2020/12/31 02:21:52;;;;;;;7.30;3.78;;;3.90;99.90;;;;;;5052966;28;20464;-67
2020/12/31 02:24:19;;;;;;;7.35;4.00;;;3.90;99.90;;;;;;5050001;28;20131;-67
2020/12/31 02:26:49;;;;;;;8.40;4.35;;;4.00;99.90;;;;;;5051613;28;20518;-67
2020/12/31 02:29:17;;;;;;;6.82;3.97;;;4.00;99.90;;;;;;5051196;28;20508;-67
2020/12/31 02:31:45;;;;;;;7.97;4.88;;;4.00;99.90;;;;;;5051873;28;20044;-67
2020/12/31 02:34:14;;;;;;;8.30;4.35;;;4.00;99.90;;;;;;5045142;28;20163;-67
2020/12/31 02:36:41;;;;;;;7.40;4.20;;;4.00;99.90;;;;;;5049571;28;20538;-67
2020/12/31 02:39:11;;;;;;;8.35;4.70;;;4.00;99.90;;;;;;5052655;28;20476;-67
2020/12/31 02:41:39;;;;;;;7.20;4.25;;;4.00;99.90;;;;;;5050920;28;20048;-67
2020/12/31 02:44:07;;;;;;;8.80;4.10;;;4.10;99.90;;;;;;5045794;28;20766;-67
2020/12/31 02:46:34;;;;;;;8.03;4.60;;;4.00;99.90;;;;;;5050198;28;20049;-68
2020/12/31 02:49:00;;;;;;;8.55;4.57;;;4.10;99.90;;;;;;5052876;28;20825;-68
2020/12/31 02:51:27;;;;;;;8.70;5.13;;;4.10;99.90;;;;;;5050526;28;20052;-67
2020/12/31 02:53:54;;;;;;;8.55;4.80;;;4.10;99.90;;;;;;5051284;28;20473;-67
2020/12/31 02:56:23;;;;;;;9.82;5.50;;;4.10;99.90;;;;;;5047949;28;20051;-67
2020/12/31 02:58:50;;;;;;;11.88;5.70;;;4.10;99.90;;;;;;5052598;28;20129;-67
2020/12/31 03:01:17;;;;;;;10.63;5.97;;;4.00;99.90;;;;;;5049882;28;20061;-67
2020/12/31 03:03:44;;;;;;;9.30;5.68;;;4.00;99.90;;;;;;5047670;28;20569;-67
2020/12/31 03:06:10;;;;;;;10.65;5.70;;;4.00;99.90;;;;;;5049049;28;20107;-67
2020/12/31 03:08:38;;;;;;;8.77;4.82;;;4.00;99.90;;;;;;5052479;28;20093;-67
2020/12/31 03:11:13;;;;;;;9.30;5.35;;;4.00;99.90;;;;;;5047985;28;20040;-67
2020/12/31 03:13:39;;;;;;;9.82;5.82;;;4.00;99.90;;;;;;5050967;28;20049;-67
2020/12/31 03:16:06;;;;;;;10.15;5.63;;;4.00;99.90;;;;;;5047708;28;20495;-67
2020/12/31 03:18:32;;;;;;;8.18;4.80;;;3.90;99.90;;;;;;5052390;28;20052;-67
2020/12/31 03:20:58;;;;;;;10.68;5.85;;;3.90;99.90;;;;;;5049018;28;20060;-67
2020/12/31 03:23:24;;;;;;;10.02;5.57;;;3.90;99.90;;;;;;5051139;28;20053;-67
2020/12/31 03:25:50;;;;;;;10.85;6.00;;;3.90;99.90;;;;;;5046404;28;20529;-67
2020/12/31 03:28:17;;;;;;;9.35;5.75;;;3.90;99.90;;;;;;5051498;28;20144;-67
2020/12/31 03:30:45;;;;;;;9.65;5.75;;;3.90;99.90;;;;;;5048826;28;20045;-67
2020/12/31 03:33:13;;;;;;;10.48;5.50;;;3.90;99.90;;;;;;5051042;28;20045;-67
2020/12/31 03:35:44;;;;;;;9.40;5.63;;;3.90;99.90;;;;;;5046601;28;20049;-67
2020/12/31 03:38:11;;;;;;;9.23;5.43;;;3.90;99.90;;;;;;5051008;28;20401;-67
2020/12/31 03:40:38;;;;;;;9.85;5.78;;;3.90;99.90;;;;;;5052096;28;20147;-67
2020/12/31 03:43:06;;;;;;;9.18;5.13;;;3.90;99.90;;;;;;5051271;28;20128;-67
2020/12/31 03:45:32;;;;;;;9.63;5.45;;;3.90;99.90;;;;;;5046154;28;20473;-67
2020/12/31 03:47:59;;;;;;;9.18;5.20;;;3.90;99.90;;;;;;5051284;28;20408;-67
2020/12/31 03:50:26;;;;;;;9.15;5.72;;;3.90;99.90;;;;;;5048070;28;20442;-67
2020/12/31 03:52:52;;;;;;;8.15;4.97;;;3.90;99.90;;;;;;5051078;28;20049;-67
2020/12/31 03:55:19;;;;;;;11.50;5.50;;;3.90;99.90;;;;;;5037614;28;20427;-66
2020/12/31 03:57:45;;;;;;;10.70;5.85;;;3.90;99.90;;;;;;5051336;28;20144;-66
2020/12/31 04:00:12;;;;;;;9.05;5.47;;;3.90;99.90;;;;;;5046693;28;20622;-66
2020/12/31 04:02:39;;;;;;;9.25;5.72;;;3.90;99.90;;;;;;5051454;28;20167;-66
2020/12/31 04:05:07;;;;;;;8.90;5.38;;;3.90;99.90;;;;;;5047446;28;20049;-67
2020/12/31 04:07:33;;;;;;;10.85;5.68;;;3.90;99.90;;;;;;5050599;28;20051;-67
2020/12/31 04:10:02;;;;;;;9.13;5.97;;;3.90;99.90;;;;;;5048084;28;20063;-67
2020/12/31 04:12:28;;;;;;;11.18;6.10;;;3.90;99.90;;;;;;5050830;28;20071;-67
2020/12/31 04:14:55;;;;;;;12.98;6.35;;;3.90;99.90;;;;;;5047107;28;20045;-67
2020/12/31 04:17:21;;;;;;;14.32;6.72;;;3.90;99.90;;;;;;5050988;28;20052;-67
2020/12/31 04:19:47;;;;;;;11.65;5.95;;;3.90;99.90;;;;;;5046022;28;20064;-67
2020/12/31 04:22:13;;;;;;;11.43;6.70;;;3.90;99.90;;;;;;5050513;28;20053;-67
2020/12/31 04:24:39;;;;;;;12.90;6.18;;;3.90;99.90;;;;;;5047850;28;20049;-67
2020/12/31 04:27:06;;;;;;;10.40;5.80;;;3.90;99.90;;;;;;5049299;28;20049;-67
2020/12/31 04:29:32;;;;;;;12.48;6.10;;;3.90;99.90;;;;;;5048254;28;20049;-67
2020/12/31 04:31:59;;;;;;;11.05;5.88;;;3.90;99.90;;;;;;5049767;28;20045;-67
2020/12/31 04:34:25;;;;;;;11.75;6.40;;;3.90;99.90;;;;;;5048937;28;20127;-67
2020/12/31 04:36:51;;;;;;;11.32;5.95;;;3.90;99.90;;;;;;5048919;28;20489;-67
2020/12/31 04:39:17;;;;;;;10.00;5.65;;;3.90;99.90;;;;;;5047715;28;20049;-67
2020/12/31 04:41:44;;;;;;;9.38;5.53;;;3.90;99.90;;;;;;5047960;28;20123;-67
2020/12/31 04:44:13;;;;;;;13.38;5.75;;;3.90;99.90;;;;;;5049653;28;20051;-67
2020/12/31 04:46:41;;;;;;;;;;;4.00;99.90;;;;;;5049564;28;20036;-67
2020/12/31 04:49:20;;;;;;;6.93;4.15;;;4.00;99.90;;;;;;5050273;28;19928;-67
2020/12/31 04:51:53;;;;;;;8.63;5.05;;;4.00;99.90;;;;;;5049631;28;20060;-67
2020/12/31 04:54:20;;;;;;;9.10;5.15;;;4.00;99.90;;;;;;5047498;28;20048;-66
2020/12/31 04:56:47;;;;;;;8.25;4.75;;;3.90;99.90;;;;;;5064061;28;20049;-67
2020/12/31 04:59:14;;;;;;;10.27;5.13;;;4.00;99.90;;;;;;5048653;28;20055;-65
2020/12/31 05:01:43;;;;;;;10.50;6.10;;;4.00;99.90;;;;;;5049619;28;20146;-66
2020/12/31 05:04:10;;;;;;;;;;;3.90;99.90;;;;;;5050205;28;20513;-67
2020/12/31 05:06:39;;;;;;;8.20;4.82;;;3.90;99.90;;;;;;5043843;28;19924;-67
2020/12/31 05:09:18;;;;;;;9.82;5.03;;;3.90;99.90;;;;;;5050982;28;20106;-67
2020/12/31 05:11:52;;;;;;;8.98;4.50;;;3.90;99.90;;;;;;5047799;28;20049;-66
2020/12/31 05:14:33;;;;;;;8.90;4.97;;;3.90;99.90;;;;;;5043900;28;20063;-66
2020/12/31 05:17:21;;;;;;;11.10;5.50;;;3.90;99.90;;;;;;5044049;28;20155;-66
2020/12/31 05:19:47;;;;;;;8.98;4.95;;;3.90;99.90;;;;;;5045408;28;20057;-66
2020/12/31 05:22:18;;;;;;;8.60;5.05;;;3.90;99.90;;;;;;5050432;28;20489;-66
2020/12/31 05:24:49;;;;;;;9.43;4.88;;;3.80;99.90;;;;;;5045222;28;20400;-67
2020/12/31 05:27:24;;;;;;;9.07;5.05;;;3.80;99.90;;;;;;5046434;28;20092;-67
2020/12/31 05:30:05;;;;;;;8.57;4.63;;;3.90;99.90;;;;;;5045721;28;20128;-67
2020/12/31 05:32:34;;;;;;;8.73;5.30;;;3.90;99.90;;;;;;5047948;28;20041;-67
2020/12/31 05:35:08;;;;;;;8.90;5.07;;;3.90;99.90;;;;;;5043810;28;20056;-67
2020/12/31 05:37:35;;;;;;;8.43;4.75;;;3.90;99.90;;;;;;5048035;28;20055;-67
2020/12/31 05:40:08;;;;;;;8.68;5.22;;;3.90;99.90;;;;;;5040278;28;20053;-67
2020/12/31 05:42:37;;;;;;;9.40;5.22;;;3.90;99.90;;;;;;5046103;28;20140;-67
2020/12/31 05:45:17;;;;;;;7.93;4.40;;;3.90;99.90;;;;;;5043862;28;20068;-66
2020/12/31 05:47:49;;;;;;;8.48;4.75;;;3.90;99.90;;;;;;5049291;28;20041;-66
2020/12/31 05:50:27;;;;;;;8.73;4.57;;;3.90;99.90;;;;;;5045396;28;20046;-66
2020/12/31 05:52:55;;;;;;;8.52;4.93;;;3.90;99.90;;;;;;5051979;28;20045;-66
2020/12/31 05:55:24;;;;;;;8.38;4.82;;;4.00;99.90;;;;;;5047120;28;20432;-66
2020/12/31 05:57:54;;;;;;;8.77;5.30;;;3.90;99.90;;;;;;5052846;28;20110;-66
2020/12/31 06:00:26;;;;;;;8.93;4.28;;;4.00;99.90;;;;;;5050573;28;20048;-67
2020/12/31 06:02:56;;;;;;;7.32;4.30;;;4.00;99.90;;;;;;5051155;28;20458;-67
2020/12/31 06:05:23;;;;;;;9.38;5.07;;;4.00;99.90;;;;;;5045318;28;20097;-67
2020/12/31 06:07:52;;;;;;;8.57;5.15;;;4.00;99.90;;;;;;5046376;28;21380;-66
2020/12/31 06:10:21;;;;;;;8.55;5.07;;;4.00;99.90;;;;;;5055912;28;20287;-66
2020/12/31 06:12:52;;;;;;;8.80;4.85;;;4.00;99.90;;;;;;5053461;28;20488;-66
2020/12/31 06:15:21;;;;;;;9.65;5.63;;;4.00;99.90;;;;;;5048635;28;20468;-66
2020/12/31 06:17:47;;;;;;;;;;;4.00;99.90;;;;;;5052353;28;20144;-66
2020/12/31 06:20:16;;;;;;;8.23;5.10;;;3.90;99.90;;;;;;5048635;28;20026;-66
2020/12/31 06:23:03;;;;;;;8.40;4.65;;;3.90;99.90;;;;;;5051300;28;20407;-66
2020/12/31 06:25:31;;;;;;;9.82;4.85;;;3.90;99.90;;;;;;5049494;28;20425;-66
2020/12/31 06:28:04;;;;;;;9.07;4.95;;;3.90;99.90;;;;;;5052056;28;20403;-66
2020/12/31 06:30:31;;;;;;;9.57;4.40;;;3.90;99.90;;;;;;5049632;28;20045;-66
2020/12/31 06:33:03;;;;;;;9.02;5.05;;;3.90;99.90;;;;;;5052076;28;20084;-66
2020/12/31 06:35:32;;;;;;;6.90;4.28;;;3.90;99.90;;;;;;5046535;28;20139;-66
2020/12/31 06:38:03;;;;;;;7.22;4.63;;;3.90;99.90;;;;;;5049135;28;20686;-66
2020/12/31 06:40:32;;;;;;;6.43;3.95;;;3.90;99.90;;;;;;5044236;28;20193;-66
2020/12/31 06:43:14;;;;;;;6.55;4.00;;;3.90;99.90;;;;;;5052059;28;20451;-66
2020/12/31 06:45:42;;;;;;;8.57;4.88;;;3.90;99.90;;;;;;5049387;28;20053;-66
2020/12/31 06:48:24;;;;;;;6.22;3.85;;;4.00;99.90;;;;;;5049844;28;20136;-66
2020/12/31 06:50:56;;;;;;;6.38;4.03;;;4.00;99.90;;;;;;5049038;28;20144;-66
2020/12/31 06:53:43;;;;;;;7.47;4.32;;;4.00;99.90;;;;;;5052621;28;20049;-66
2020/12/31 06:56:11;;;;;;;8.45;4.43;;;4.00;99.90;;;;;;5045643;28;20060;-66
2020/12/31 06:58:38;;;;;;;8.50;4.57;;;4.00;99.90;;;;;;5050939;28;20048;-66
2020/12/31 07:01:25;;;;;;;6.28;4.18;;;3.90;99.90;;;;;;5047306;28;20078;-65
2020/12/31 07:03:58;;;;;;;5.70;3.53;;;3.90;99.90;;;;;;5042811;28;20067;-65
2020/12/31 07:06:25;;;;;;;6.35;3.45;;;3.90;99.90;;;;;;5047816;28;20049;-65
2020/12/31 07:09:02;;;;;;;6.43;3.97;;;3.90;99.90;;;;;;5051489;28;20495;-65
2020/12/31 07:11:39;;;;;;;8.13;3.70;;;4.00;99.90;;;;;;5047278;28;20049;-65
2020/12/31 07:14:23;;;;;;;7.38;3.85;;;4.00;99.90;;;;;;5048786;28;20405;-65
2020/12/31 07:17:03;;;;;;;6.97;3.58;;;3.90;99.90;;;;;;5049172;28;20045;-65
2020/12/31 07:19:34;;;;;;;5.38;3.35;;;4.00;99.90;;;;;;5050212;28;20046;-65
2020/12/31 07:22:14;;;;;;;6.18;3.70;;;4.00;99.90;;;;;;5041487;28;20053;-65
2020/12/31 07:24:54;;;;;;;8.40;4.38;;;4.00;99.90;;;;;;5045945;28;20140;-65
2020/12/31 07:27:27;;;;;;;6.85;4.03;;;3.90;99.90;;;;;;5047097;28;20483;-65
2020/12/31 07:30:29;;;;;;;7.05;3.55;;;3.90;99.90;;;;;;5045062;28;20131;-65
2020/12/31 07:33:06;;;;;;;6.07;3.30;;;3.90;99.90;;;;;;5049152;28;20150;-66
2020/12/31 07:35:32;;;;;;;5.85;3.05;;;3.90;99.90;;;;;;5047588;28;20037;-66
2020/12/31 07:38:16;;;;;;;5.28;3.47;;;3.90;99.90;;;;;;5048767;28;20049;-66
2020/12/31 07:40:53;;;;;;;7.13;3.38;;;3.90;99.90;;;;;;5044583;28;20041;-66
2020/12/31 07:43:25;;;;;;;4.90;2.92;;;3.90;99.90;;;;;;5045457;28;20187;-65
2020/12/31 07:45:51;;;;;;;4.45;3.22;;;3.90;99.90;;;;;;5045269;28;20053;-65
2020/12/31 07:48:20;;;;;;;5.47;3.30;;;3.90;99.90;;;;;;5050499;28;20040;-65
2020/12/31 07:50:52;;;;;;;4.88;3.40;;;3.90;99.90;;;;;;5044534;28;20167;-65
2020/12/31 07:53:20;;;;;;;7.55;4.18;;;3.90;99.90;;;;;;5052068;28;20045;-66
2020/12/31 07:55:48;;;;;;;6.97;3.90;;;3.90;99.90;;;;;;5047505;28;20055;-65
2020/12/31 07:58:21;;;;;;;6.90;3.63;;;3.90;99.90;;;;;;5048979;28;20044;-65
2020/12/31 08:01:00;;;;;;;6.57;3.08;;;3.90;99.90;;;;;;5046871;28;20307;-65
2020/12/31 08:03:27;;;;;;;5.82;3.30;;;3.90;99.90;;;;;;5048164;28;20481;-65
2020/12/31 08:05:57;;;;;;;7.03;3.45;;;3.90;99.90;;;;;;5045006;28;20140;-65
2020/12/31 08:08:24;;;;;;;7.30;3.40;;;3.80;99.90;;;;;;5049159;28;20064;-65
2020/12/31 08:10:51;;;;;;;6.88;3.58;;;3.80;99.90;;;;;;5047385;28;20481;-66
2020/12/31 08:13:17;;;;;;;5.97;3.55;;;3.80;99.90;;;;;;5036972;28;20053;-66
2020/12/31 08:15:51;;;;;;;5.93;3.47;;;3.80;99.90;;;;;;5046985;28;20049;-65
2020/12/31 08:18:18;;;;;;;6.40;3.75;;;3.80;99.90;;;;;;5047916;28;20134;-66
2020/12/31 08:20:47;;;;;;;8.60;4.50;;;3.80;99.90;;;;;;5044729;28;20049;-66
2020/12/31 08:23:23;;;;;;;9.32;3.88;;;3.80;99.90;;;;;;5047643;28;20484;-65
2020/12/31 08:25:52;;;;;;;7.15;3.10;;;3.70;99.90;;;;;;5045893;28;20051;-66
2020/12/31 08:28:21;;;;;;;5.85;3.28;;;3.80;99.90;;;;;;5048594;28;20140;-66
2020/12/31 08:30:48;;;;;;;5.63;3.03;;;3.80;99.90;;;;;;5048194;28;20059;-66
2020/12/31 08:33:23;;;;;;;4.93;2.88;;;3.80;99.90;;;;;;5048514;28;20051;-66
2020/12/31 08:35:51;;;;;;;6.15;3.05;;;3.80;99.90;;;;;;5046264;28;20500;-66
2020/12/31 08:38:19;;;;;;;4.70;2.47;;;3.80;99.90;;;;;;5049361;28;20076;-66
2020/12/31 08:40:56;;;;;;;5.53;3.13;;;3.90;99.90;;;;;;5042171;28;20059;-65
2020/12/31 08:43:25;;;;;;;6.85;3.15;;;3.90;99.90;;;;;;5049684;28;20527;-66
2020/12/31 08:45:57;;;;;;;6.07;2.90;;;3.90;99.90;;;;;;5045768;28;20049;-66
2020/12/31 08:48:28;;;;;;;5.20;3.15;;;4.00;99.90;;;;;;5043610;28;20107;-66
2020/12/31 08:51:09;;;;;;;5.40;3.03;;;4.00;99.90;;;;;;5051596;28;20041;-66
2020/12/31 08:53:57;;;;;;;5.65;3.25;;;4.00;99.90;;;;;;5046085;28;20379;-66
2020/12/31 08:56:29;;;;;;;5.82;3.63;;;4.00;99.90;;;;;;5048487;28;20143;-66
2020/12/31 08:59:11;;;;;;;4.93;2.55;;;3.90;99.90;;;;;;5048271;28;20445;-66
2020/12/31 09:01:42;;;;;;;4.53;2.60;;;3.90;99.90;;;;;;5049342;28;20395;-66
2020/12/31 09:04:09;;;;;;;5.10;2.88;;;3.90;99.90;;;;;;5048597;28;20460;-66
2020/12/31 09:06:46;;;;;;;4.40;2.63;;;3.90;99.90;;;;;;5048626;28;20558;-66
2020/12/31 09:09:16;;;;;;;4.73;2.70;;;3.90;99.90;;;;;;5048309;28;20132;-65
2020/12/31 09:12:04;;;;;;;3.70;2.38;;;4.00;99.90;;;;;;5042800;28;20386;-66
2020/12/31 09:14:31;;;;;;;4.93;2.30;;;4.00;99.90;;;;;;5046214;28;20103;-66
2020/12/31 09:16:58;;;;;;;6.63;2.70;;;4.00;99.90;;;;;;5040127;28;20136;-66
2020/12/31 09:19:25;;;;;;;5.72;2.72;;;4.00;99.90;;;;;;5045242;28;20132;-66
2020/12/31 09:21:51;;;;;;;4.20;2.65;;;4.00;99.90;;;;;;5048627;28;20497;-66
2020/12/31 09:24:19;;;;;;;4.28;2.22;;;4.00;99.90;;;;;;5040800;28;20775;-66
2020/12/31 09:26:59;;;;;;;4.75;2.75;;;4.00;99.90;;;;;;5050653;28;20131;-66
2020/12/31 09:29:29;;;;;;;4.38;2.40;;;4.00;99.90;;;;;;5048361;28;20095;-66
2020/12/31 09:31:56;;;;;;;5.22;2.58;;;4.10;99.90;;;;;;5043014;28;20148;-66
2020/12/31 09:34:22;;;;;;;4.13;2.65;;;4.10;99.90;;;;;;5045401;28;20051;-66
2020/12/31 09:36:49;;;;;;;4.45;2.42;;;4.10;99.90;;;;;;5046210;28;20298;-66
2020/12/31 09:39:15;;;;;;;4.07;2.45;;;4.10;99.90;;;;;;5052087;28;20048;-66
2020/12/31 09:41:41;;;;;;;4.63;2.72;;;4.10;99.90;;;;;;5051057;28;20174;-66
2020/12/31 09:44:08;;;;;;;4.15;2.60;;;4.10;99.90;;;;;;5051135;28;20064;-66
2020/12/31 09:46:34;;;;;;;3.97;2.65;;;4.10;99.90;;;;;;5052885;28;20137;-66
2020/12/31 09:49:01;;;;;;;4.40;2.80;;;4.20;99.90;;;;;;5044448;28;20045;-66
2020/12/31 09:51:27;;;;;;;4.32;2.28;;;4.20;99.90;;;;;;5054044;28;20147;-66
2020/12/31 09:53:53;;;;;;;3.63;2.30;;;4.20;99.90;;;;;;5045457;28;20049;-66
2020/12/31 09:56:28;;;;;;;3.95;2.47;;;4.20;99.90;;;;;;5049030;28;20196;-66
2020/12/31 09:58:54;;;;;;;4.40;2.60;;;4.30;99.90;;;;;;5045463;28;20049;-66
2020/12/31 10:01:22;;;;;;;6.93;2.70;;;4.30;99.90;;;;;;5052286;28;20492;-66
2020/12/31 10:03:48;;;;;;;5.63;3.05;;;4.30;99.90;;;;;;5061889;28;20057;-66
2020/12/31 10:06:15;;;;;;;4.65;2.78;;;4.30;99.90;;;;;;5050827;28;20059;-66
2020/12/31 10:08:42;;;;;;;5.03;3.08;;;4.30;99.90;;;;;;5041573;28;20536;-66
2020/12/31 10:11:08;;;;;;;5.57;2.67;;;4.30;99.90;;;;;;5051871;28;20044;-66
2020/12/31 10:13:35;;;;;;;6.60;2.83;;;4.30;99.90;;;;;;5049301;28;20056;-66
2020/12/31 10:16:04;;;;;;;5.13;3.35;;;4.30;99.90;;;;;;5050537;28;20523;-66
2020/12/31 10:18:31;;;;;;;5.13;2.90;;;4.30;99.90;;;;;;5041781;28;20132;-66
2020/12/31 10:20:57;;;;;;;5.05;2.92;;;4.30;99.90;;;;;;5036341;28;20053;-66
2020/12/31 10:23:23;;;;;;;4.25;2.70;;;4.30;99.90;;;;;;5033448;28;20499;-66
2020/12/31 10:25:50;;;;;;;5.07;3.05;;;4.30;99.90;;;;;;5032732;28;20293;-66
2020/12/31 10:28:21;;;;;;;4.43;2.78;;;4.30;99.90;;;;;;5031222;28;20548;-66
2020/12/31 10:30:48;;;;;;;4.75;2.70;;;4.30;99.90;;;;;;5045197;28;20144;-66
2020/12/31 10:33:15;;;;;;;4.95;2.72;;;4.30;99.90;;;;;;5042261;28;20461;-66
2020/12/31 10:35:41;;;;;;;6.00;3.17;;;4.30;99.90;;;;;;5034010;28;20179;-66
2020/12/31 10:38:08;;;;;;;5.55;2.90;;;4.30;99.90;;;;;;5040634;28;20056;-66
2020/12/31 10:40:34;;;;;;;5.68;2.67;;;4.30;99.90;;;;;;5046229;28;20124;-66
2020/12/31 10:43:00;;;;;;;5.53;3.03;;;4.30;99.90;;;;;;5043224;28;20053;-66
2020/12/31 10:45:27;;;;;;;6.25;3.17;;;4.30;99.90;;;;;;5039145;28;20399;-66
2020/12/31 10:47:53;;;;;;;6.20;3.00;;;4.30;99.90;;;;;;5048022;28;20040;-66
2020/12/31 10:50:20;;;;;;;5.20;2.80;;;4.30;99.90;;;;;;5049122;28;20051;-66
2020/12/31 10:52:46;;;;;;;4.30;2.42;;;4.30;99.90;;;;;;5040535;28;20488;-66
2020/12/31 10:55:13;;;;;;;4.38;2.53;;;4.30;99.90;;;;;;5041895;28;20378;-66
2020/12/31 10:57:39;;;;;;;5.03;3.00;;;4.30;99.90;;;;;;5035807;28;20059;-66
2020/12/31 11:00:05;;;;;;;5.70;3.38;;;4.30;99.90;;;;;;5043312;28;20045;-66
2020/12/31 11:02:31;;;;;;;5.05;2.50;;;4.30;99.90;;;;;;5042427;28;20067;-66
2020/12/31 11:04:57;;;;;;;10.07;3.10;;;4.30;99.90;;;;;;5046910;28;20049;-66
2020/12/31 11:07:24;;;;;;;6.07;3.47;;;4.40;99.90;;;;;;5032754;28;20067;-66
2020/12/31 11:09:50;;;;;;;7.03;3.17;;;4.40;99.90;;;;;;5040578;28;20056;-67
2020/12/31 11:12:16;;;;;;;4.40;2.63;;;4.40;99.90;;;;;;5046299;28;20051;-67
2020/12/31 11:14:43;;;;;;;6.25;2.90;;;4.40;99.90;;;;;;5050841;28;20041;-66
2020/12/31 11:17:09;;;;;;;5.80;3.03;;;4.40;99.90;;;;;;5046806;28;20067;-66
2020/12/31 11:19:35;;;;;;;5.90;2.95;;;4.40;99.90;;;;;;5041935;28;20104;-66
2020/12/31 11:22:02;;;;;;;6.35;3.10;;;4.40;99.90;;;;;;5041158;28;20080;-66
2020/12/31 11:24:28;;;;;;;5.13;2.95;;;4.40;99.90;;;;;;5051801;28;20041;-67
2020/12/31 11:26:54;;;;;;;6.47;3.63;;;4.40;99.90;;;;;;5047250;28;20052;-67
2020/12/31 11:29:21;;;;;;;7.45;3.53;;;4.40;99.90;;;;;;5049716;28;20056;-67
2020/12/31 11:31:47;;;;;;;5.88;3.50;;;4.40;99.90;;;;;;5049865;28;20143;-67
2020/12/31 11:34:26;;;;;;;5.97;3.10;;;4.40;99.90;;;;;;5047557;28;20131;-67
2020/12/31 11:36:52;;;;;;;6.78;3.47;;;4.40;99.90;;;;;;5048117;28;20049;-66
2020/12/31 11:39:18;;;;;;;5.97;2.95;;;4.40;99.90;;;;;;5049085;28;20417;-66
2020/12/31 11:41:48;;;;;;;7.10;3.15;;;4.40;99.90;;;;;;5046900;28;20053;-67
2020/12/31 11:44:15;;;;;;;7.82;3.42;;;4.40;99.90;;;;;;5045243;28;20088;-67
2020/12/31 11:46:45;;;;;;;6.70;3.53;;;4.40;99.90;;;;;;5048944;28;20071;-66
2020/12/31 11:49:11;;;;;;;9.05;4.13;;;4.40;99.90;;;;;;5048284;28;20045;-67
2020/12/31 11:51:37;;;;;;;9.15;4.45;;;4.40;99.90;;;;;;5049994;28;20048;-67
2020/12/31 11:54:03;;;;;;;9.82;4.03;;;4.40;99.90;;;;;;5049486;28;20410;-67
2020/12/31 11:56:30;;;;;;;8.65;4.35;;;4.50;99.90;;;;;;5049586;28;20437;-66
2020/12/31 11:58:57;;;;;;;7.05;3.85;;;4.50;99.90;;;;;;5047866;28;20136;-66
2020/12/31 12:01:23;;;;;;;11.00;5.15;;;4.50;99.90;;;;;;5051114;28;20437;-66
2020/12/31 12:03:50;;;;;;;9.60;4.43;;;4.50;99.90;;;;;;5047898;28;20045;-66
2020/12/31 12:06:16;;;;;;;10.27;4.22;;;4.50;99.90;;;;;;5050148;28;20052;-66
2020/12/31 12:08:42;;;;;;;8.65;4.30;;;4.50;99.90;;;;;;5047995;28;20449;-66
2020/12/31 12:11:09;;;;;;;8.13;4.45;;;4.50;99.90;;;;;;5050187;28;20081;-66
2020/12/31 12:13:35;;;;;;;13.82;4.80;;;4.60;99.90;;;;;;5044705;28;20049;-66
2020/12/31 12:16:02;;;;;;;10.15;5.03;;;4.60;99.90;;;;;;5049806;28;20495;-67
2020/12/31 12:18:28;;;;;;;11.88;5.00;;;4.60;99.90;;;;;;5047929;28;20055;-67
2020/12/31 12:21:00;;;;;;;11.18;5.18;;;4.70;99.90;;;;;;5050626;28;20511;-67
2020/12/31 12:23:26;;;;;;;10.52;4.72;;;4.70;99.90;;;;;;5043567;28;20051;-67
2020/12/31 12:25:53;;;;;;;11.88;5.07;;;4.80;99.90;;;;;;5044516;28;20060;-67
2020/12/31 12:28:19;;;;;;;12.35;5.90;;;4.80;99.90;;;;;;5047856;28;20067;-67
2020/12/31 12:30:45;;;;;;;12.93;5.75;;;4.80;99.90;;;;;;5050810;28;20045;-67
2020/12/31 12:33:11;;;;;;;12.88;6.15;;;4.90;99.90;;;;;;5046284;28;20048;-67
2020/12/31 12:35:38;;;;;;;12.15;5.88;;;4.80;99.90;;;;;;5049714;28;20045;-67
2020/12/31 12:38:07;;;;;;;12.43;5.57;;;4.90;99.90;;;;;;5048631;28;20095;-67
2020/12/31 12:40:33;;;;;;;13.93;6.03;;;4.80;99.90;;;;;;5050386;28;20048;-67
2020/12/31 12:43:00;;;;;;;14.75;6.50;;;4.80;99.90;;;;;;5048259;28;20148;-67
2020/12/31 12:45:26;;;;;;;14.15;6.28;;;4.90;99.90;;;;;;5049969;28;20053;-67
2020/12/31 12:47:52;;;;;;;13.57;6.43;;;4.90;99.90;;;;;;5042300;28;20051;-67
2020/12/31 12:50:18;;;;;;;13.15;6.32;;;5.00;99.90;;;;;;5050416;28;20080;-67
2020/12/31 12:52:44;;;;;;;14.18;6.65;;;5.00;99.90;;;;;;5043519;28;20148;-67
2020/12/31 12:55:10;;;;;;;11.80;5.80;;;5.10;99.90;;;;;;5049865;28;20055;-67
2020/12/31 12:57:37;;;;;;;17.33;6.85;;;5.10;99.90;;;;;;5046319;28;20396;-67
2020/12/31 13:00:04;;;;;;;13.23;6.22;;;5.10;99.90;;;;;;5049366;28;20048;-67
2020/12/31 13:02:30;;;;;;;15.10;6.47;;;5.20;99.90;;;;;;5047738;28;20441;-67
2020/12/31 13:04:56;;;;;;;13.75;6.50;;;5.20;99.90;;;;;;5050452;28;20147;-67